Terminal Aerodrome Forecast
Issued by NWS Corpus Christi, TX

Home | Current Version | Previous Version | Text Only | Print | Product List | Glossary On
Versions: 1 2 3 4 5 6 7 8 9 10 11 12 13 14
000
FTUS44 KCRP 171740
TAFCRP
TAF
KCRP 171740Z 1718/1818 VRB03KT P6SM OVC006
     FM172100 VRB03KT P6SM BKN012 OVC020
     FM180400 36004KT P6SM OVC008
     FM180700 04005KT 5SM BR VCSH OVC004
     FM181400 36006KT P6SM VCSH OVC006
      TEMPO 1815/1818 5SM -SHRA OVC004=

USA.gov is the U.S. government's official web portal to all federal, state and local government web resources and services.